createdAt,value
2023-05-20T00:02:27.209Z,2.10
2023-05-20T00:07:30.595Z,1.97
2023-05-20T00:12:35.637Z,2.13
2023-05-20T00:17:38.878Z,2.50
2023-05-20T00:22:42.078Z,2.50
2023-05-20T00:27:47.300Z,2.40
2023-05-20T00:32:50.589Z,2.50
2023-05-20T00:37:54.174Z,2.60
2023-05-20T00:42:58.957Z,2.40
2023-05-20T00:48:04.210Z,2.50
2023-05-20T00:53:08.662Z,2.30
2023-05-20T00:58:13.393Z,2.60
2023-05-20T01:03:17.791Z,2.20
2023-05-20T01:08:21.368Z,1.90
2023-05-20T01:13:32.493Z,2.10
2023-05-20T01:18:37.034Z,2.30
2023-05-20T01:23:42.853Z,2.73
2023-05-20T01:28:46.126Z,2.73
2023-05-20T01:33:55.192Z,2.40
2023-05-20T01:39:01.121Z,2.53
2023-05-20T01:44:05.137Z,2.27
2023-05-20T01:49:08.992Z,2.80
2023-05-20T01:54:14.161Z,2.70
2023-05-20T01:59:19.505Z,2.43
2023-05-20T02:04:23.025Z,2.70
2023-05-20T02:09:27.746Z,2.60
2023-05-20T02:14:31.057Z,2.60
2023-05-20T02:19:34.447Z,3.00
2023-05-20T02:24:39.389Z,2.80
2023-05-20T02:29:44.094Z,3.17
2023-05-20T02:34:47.579Z,2.80
2023-05-20T02:39:52.153Z,2.80
2023-05-20T02:44:58.472Z,3.30
2023-05-20T02:50:01.728Z,2.70
2023-05-20T02:55:07.723Z,2.60
2023-05-20T03:00:12.149Z,3.00
2023-05-20T03:05:15.324Z,2.37
2023-05-20T03:10:19.917Z,2.77
2023-05-20T03:15:23.042Z,3.10
2023-05-20T03:20:29.087Z,3.10
2023-05-20T03:25:33.887Z,3.47
2023-05-20T03:30:37.894Z,3.00
2023-05-20T03:35:41.549Z,3.53
2023-05-20T03:40:46.184Z,3.47
2023-05-20T03:45:49.359Z,3.20
2023-05-20T03:50:52.608Z,3.00
2023-05-20T03:55:58.049Z,3.10
2023-05-20T04:01:01.328Z,3.50
2023-05-20T04:06:04.956Z,3.70
2023-05-20T04:11:09.631Z,3.30
2023-05-20T04:16:12.839Z,3.57
2023-05-20T04:21:16.199Z,3.20
2023-05-20T04:26:21.054Z,3.53
2023-05-20T04:31:26.823Z,3.73
2023-05-20T04:36:31.718Z,3.20
2023-05-20T04:41:37.618Z,3.73
2023-05-20T04:46:41.668Z,3.90
2023-05-20T04:51:45.097Z,3.67
2023-05-20T04:56:49.946Z,3.70
2023-05-20T05:01:54.192Z,3.50
2023-05-20T05:06:57.380Z,3.60
2023-05-20T05:12:02.814Z,3.73
2023-05-20T05:17:06.320Z,3.73
2023-05-20T05:22:09.661Z,3.67
2023-05-20T05:27:16.207Z,3.97
2023-05-20T05:32:19.812Z,4.17
2023-05-20T05:37:23.192Z,4.20
2023-05-20T05:42:27.859Z,4.23
2023-05-20T05:47:32.805Z,4.43
2023-05-20T05:52:37.277Z,4.13
2023-05-20T05:57:42.195Z,4.07
2023-05-20T06:02:45.791Z,3.80
2023-05-20T06:07:49.023Z,4.07
2023-05-20T06:12:53.741Z,4.37
2023-05-20T06:17:57.149Z,4.07
2023-05-20T06:23:00.398Z,4.00
2023-05-20T06:28:05.340Z,4.20
2023-05-20T06:33:08.669Z,4.20
2023-05-20T06:38:11.908Z,3.90
2023-05-20T06:43:16.632Z,4.23
2023-05-20T06:48:19.909Z,4.17
2023-05-20T06:53:23.036Z,4.10
2023-05-20T06:58:27.606Z,4.53
2023-05-20T07:03:31.022Z,4.40
2023-05-20T07:08:34.325Z,4.50
2023-05-20T07:13:39.121Z,4.83
2023-05-20T07:18:42.354Z,4.47
2023-05-20T07:23:45.775Z,4.53
2023-05-20T07:28:51.607Z,4.43
2023-05-20T07:33:54.835Z,4.30
2023-05-20T07:39:04.180Z,4.40
2023-05-20T07:44:11.462Z,5.00
2023-05-20T07:49:14.668Z,4.33
2023-05-20T07:54:17.939Z,4.43
2023-05-20T07:59:22.617Z,4.43
2023-05-20T08:04:27.782Z,4.00
2023-05-20T08:09:32.786Z,4.30
2023-05-20T08:14:37.505Z,4.50
2023-05-20T08:19:41.072Z,3.90
2023-05-20T08:24:44.167Z,4.10
2023-05-20T08:29:48.691Z,3.80
2023-05-20T08:34:51.954Z,4.10
2023-05-20T08:39:55.232Z,4.23
2023-05-20T08:45:01.192Z,4.40
2023-05-20T08:50:04.605Z,4.20
2023-05-20T08:55:11.462Z,4.30
2023-05-20T09:00:18.351Z,4.30
2023-05-20T09:05:22.322Z,4.20
2023-05-20T09:10:27.291Z,3.80
2023-05-20T09:20:37.309Z,4.00
2023-05-20T09:25:40.742Z,3.57
2023-05-20T09:30:46.157Z,3.80
2023-05-20T09:35:51.295Z,4.30
2023-05-20T09:40:55.614Z,4.40
2023-05-20T09:46:00.973Z,3.90
2023-05-20T09:51:05.386Z,4.27
2023-05-20T09:56:08.885Z,3.90
2023-05-20T10:01:13.607Z,4.10
2023-05-20T10:06:34.216Z,3.70
2023-05-20T10:11:42.526Z,3.80
2023-05-20T10:16:52.736Z,3.30
2023-05-20T10:22:00.239Z,3.53
2023-05-20T10:27:05.243Z,3.53
2023-05-20T10:32:09.885Z,3.60
2023-05-20T10:37:24.317Z,3.00
2023-05-20T10:42:31.437Z,3.80
2023-05-20T10:47:36.757Z,3.77
2023-05-20T10:52:40.473Z,3.73
2023-05-20T10:57:44.271Z,4.00
2023-05-20T11:02:50.559Z,6.37
2023-05-20T11:08:04.469Z,3.90
2023-05-20T11:13:15.353Z,5.47
2023-05-20T11:18:20.242Z,3.93
2023-05-20T11:23:24.686Z,3.50
2023-05-20T11:28:28.282Z,3.20
2023-05-20T11:33:32.962Z,3.73
2023-05-20T11:38:36.539Z,4.07
2023-05-20T11:43:41.627Z,4.80
2023-05-20T11:48:54.886Z,4.30
2023-05-20T11:54:02.584Z,3.70
2023-05-20T11:59:07.347Z,4.13
2023-05-20T12:04:13.420Z,4.73
2023-05-20T12:09:17.098Z,4.10
2023-05-20T12:14:20.320Z,3.83
2023-05-20T12:19:26.111Z,4.17
2023-05-20T12:24:29.266Z,3.87
2023-05-20T12:29:32.387Z,4.40
2023-05-20T12:34:36.997Z,4.83
2023-05-20T12:39:40.138Z,5.20
2023-05-20T12:44:43.260Z,4.90
2023-05-20T12:49:48.966Z,4.90
2023-05-20T12:54:52.753Z,4.87
2023-05-20T12:59:56.727Z,4.97
2023-05-20T13:05:01.358Z,6.60
2023-05-20T13:10:04.879Z,5.03
2023-05-20T13:15:09.279Z,5.00
2023-05-20T13:20:14.619Z,5.10
2023-05-20T13:25:17.834Z,4.97
2023-05-20T13:30:20.934Z,5.20
2023-05-20T13:35:25.576Z,5.40
2023-05-20T13:40:28.748Z,5.30
2023-05-20T13:45:31.947Z,5.30
2023-05-20T13:50:36.649Z,5.63
2023-05-20T13:55:40.036Z,5.33
2023-05-20T14:00:43.288Z,5.47
2023-05-20T14:05:48.232Z,5.20
2023-05-20T14:10:54.763Z,5.63
2023-05-20T14:15:58.151Z,5.20
2023-05-20T14:21:02.713Z,5.37
2023-05-20T14:26:05.925Z,5.30
2023-05-20T14:31:10.760Z,5.20
2023-05-20T14:36:15.323Z,5.30
2023-05-20T14:41:18.695Z,5.00
2023-05-20T14:46:23.133Z,5.20
2023-05-20T14:51:28.188Z,4.97
2023-05-20T14:56:32.024Z,5.37
2023-05-20T15:01:35.442Z,4.77
2023-05-20T15:06:40.308Z,5.60
2023-05-20T15:11:43.703Z,5.40
2023-05-20T15:16:47.432Z,5.93
2023-05-20T15:21:52.684Z,5.50
2023-05-20T15:26:56.136Z,5.33
2023-05-20T15:32:00.033Z,5.23
2023-05-20T15:37:04.769Z,5.70
2023-05-20T15:42:08.194Z,6.07
2023-05-20T15:47:11.359Z,6.23
2023-05-20T15:52:16.227Z,5.63
2023-05-20T15:57:19.598Z,5.67
2023-05-20T16:02:23.068Z,6.07
2023-05-20T16:07:28.050Z,5.60
2023-05-20T16:12:31.396Z,6.17
2023-05-20T16:17:34.645Z,5.97
2023-05-20T16:22:39.184Z,5.50
2023-05-20T16:27:42.355Z,5.90
2023-05-20T16:32:45.535Z,5.93
2023-05-20T16:37:51.210Z,6.03
2023-05-20T16:42:54.339Z,5.30
2023-05-20T16:47:57.576Z,5.90
2023-05-20T16:53:02.159Z,5.73
2023-05-20T16:58:05.291Z,5.63
2023-05-20T17:03:08.682Z,5.40
2023-05-20T17:08:13.194Z,5.40
2023-05-20T17:13:16.434Z,5.53
2023-05-20T17:18:19.542Z,5.83
2023-05-20T17:23:24.134Z,5.67
2023-05-20T17:28:27.265Z,5.87
2023-05-20T17:33:30.562Z,5.63
2023-05-20T17:38:35.170Z,5.63
2023-05-20T17:43:38.332Z,6.37
2023-05-20T17:48:41.560Z,5.97
2023-05-20T17:53:46.849Z,5.83
2023-05-20T17:58:50.012Z,6.13
2023-05-20T18:03:53.346Z,6.20
2023-05-20T18:09:00.007Z,6.70
2023-05-20T18:14:03.771Z,6.20
2023-05-20T18:19:07.038Z,6.47
2023-05-20T18:24:12.014Z,6.20
2023-05-20T18:29:15.150Z,6.33
2023-05-20T18:34:18.414Z,6.30
2023-05-20T18:39:22.996Z,6.60
2023-05-20T18:44:26.883Z,6.90
2023-05-20T18:49:30.183Z,7.17
2023-05-20T18:54:34.808Z,6.73
2023-05-20T18:59:38.136Z,5.90
2023-05-20T19:04:41.471Z,6.57
2023-05-20T19:09:46.069Z,6.73
2023-05-20T19:14:49.201Z,6.77
2023-05-20T19:19:52.710Z,7.30
2023-05-20T19:24:57.537Z,6.80
2023-05-20T19:30:00.953Z,7.07
2023-05-20T19:35:05.727Z,7.00
2023-05-20T19:40:12.000Z,6.57
2023-05-20T19:45:15.271Z,7.10
2023-05-20T19:50:18.504Z,6.37
2023-05-20T19:55:23.119Z,6.70
2023-05-20T20:00:26.477Z,6.80
2023-05-20T20:05:30.698Z,6.73
2023-05-20T20:10:37.526Z,7.03
2023-05-20T20:15:40.956Z,6.60
2023-05-20T20:20:44.227Z,7.57
2023-05-20T20:25:50.670Z,6.43
2023-05-20T20:30:54.022Z,7.20
2023-05-20T20:35:57.306Z,7.00
2023-05-20T20:41:03.793Z,6.43
2023-05-20T20:46:07.384Z,7.47
2023-05-20T20:51:10.675Z,7.10
2023-05-20T20:56:15.371Z,7.17
2023-05-20T21:01:18.526Z,7.10
2023-05-20T21:06:21.845Z,7.37
2023-05-20T21:11:28.028Z,7.33
2023-05-20T21:16:31.198Z,7.20
2023-05-20T21:21:34.335Z,6.50
2023-05-20T21:26:38.823Z,6.70
2023-05-20T21:31:42.083Z,7.37
2023-05-20T21:36:45.188Z,6.30
2023-05-20T21:41:49.660Z,6.60
2023-05-20T21:46:53.021Z,6.87
2023-05-20T21:51:56.386Z,6.83
2023-05-20T21:57:02.585Z,7.17
2023-05-20T22:02:06.260Z,6.67
2023-05-20T22:07:09.442Z,6.60
2023-05-20T22:12:15.542Z,6.57
2023-05-20T22:17:18.886Z,6.53
2023-05-20T22:22:22.128Z,6.63
2023-05-20T22:27:26.671Z,6.20
2023-05-20T22:32:29.843Z,6.90
2023-05-20T22:37:33.538Z,6.13
2023-05-20T22:42:38.210Z,6.60
2023-05-20T22:47:41.375Z,6.70
2023-05-20T22:52:45.164Z,6.50
2023-05-20T22:57:49.636Z,6.20
2023-05-20T23:02:52.833Z,6.07
2023-05-20T23:07:56.076Z,6.50
2023-05-20T23:13:00.580Z,6.43
2023-05-20T23:18:03.997Z,6.57
2023-05-20T23:23:11.288Z,5.93
2023-05-20T23:28:16.226Z,5.93
2023-05-20T23:33:24.244Z,6.20
2023-05-20T23:38:28.126Z,6.47
2023-05-20T23:43:32.646Z,6.00
2023-05-20T23:48:36.066Z,6.47
2023-05-20T23:53:39.216Z,6.37
2023-05-20T23:58:43.719Z,6.20
